sensor_id;sensor_type;location;lat;lon;timestamp;P1;durP1;ratioP1;P2;durP2;ratioP2
64550;SDS011;50945;44.472;-123.352;2023-07-13T00:00:07;1.27;;;1.27;;
64550;SDS011;50945;44.472;-123.352;2023-07-13T00:02:36;1.55;;;1.20;;
64550;SDS011;50945;44.472;-123.352;2023-07-13T00:05:02;1.77;;;1.20;;
64550;SDS011;50945;44.472;-123.352;2023-07-13T00:07:29;2.08;;;1.60;;
64550;SDS011;50945;44.472;-123.352;2023-07-13T00:09:56;2.15;;;1.50;;
64550;SDS011;50945;44.472;-123.352;2023-07-13T00:12:25;1.50;;;1.17;;
64550;SDS011;50945;44.472;-123.352;2023-07-13T00:14:55;3.83;;;1.27;;
64550;SDS011;50945;44.472;-123.352;2023-07-13T00:17:23;1.70;;;1.30;;
64550;SDS011;50945;44.472;-123.352;2023-07-13T00:19:50;1.60;;;1.50;;
64550;SDS011;50945;44.472;-123.352;2023-07-13T00:22:17;2.75;;;1.25;;
64550;SDS011;50945;44.472;-123.352;2023-07-13T00:24:44;1.55;;;1.40;;
64550;SDS011;50945;44.472;-123.352;2023-07-13T00:27:10;1.50;;;1.30;;
64550;SDS011;50945;44.472;-123.352;2023-07-13T00:29:37;1.38;;;1.30;;
64550;SDS011;50945;44.472;-123.352;2023-07-13T00:32:04;0.95;;;0.95;;
64550;SDS011;50945;44.472;-123.352;2023-07-13T00:34:31;2.22;;;1.25;;
64550;SDS011;50945;44.472;-123.352;2023-07-13T00:36:58;2.03;;;1.30;;
64550;SDS011;50945;44.472;-123.352;2023-07-13T00:39:24;2.45;;;1.20;;
64550;SDS011;50945;44.472;-123.352;2023-07-13T00:41:50;1.05;;;1.05;;
64550;SDS011;50945;44.472;-123.352;2023-07-13T00:44:18;1.60;;;1.42;;
64550;SDS011;50945;44.472;-123.352;2023-07-13T00:46:46;2.75;;;1.58;;
64550;SDS011;50945;44.472;-123.352;2023-07-13T00:49:13;1.20;;;1.20;;
64550;SDS011;50945;44.472;-123.352;2023-07-13T00:51:48;1.00;;;1.00;;
64550;SDS011;50945;44.472;-123.352;2023-07-13T00:54:23;1.40;;;1.30;;
64550;SDS011;50945;44.472;-123.352;2023-07-13T00:56:54;2.00;;;0.95;;
64550;SDS011;50945;44.472;-123.352;2023-07-13T00:59:23;1.42;;;1.30;;
64550;SDS011;50945;44.472;-123.352;2023-07-13T01:01:50;0.60;;;0.60;;
64550;SDS011;50945;44.472;-123.352;2023-07-13T01:04:17;0.98;;;0.98;;
64550;SDS011;50945;44.472;-123.352;2023-07-13T01:06:44;1.35;;;1.20;;
64550;SDS011;50945;44.472;-123.352;2023-07-13T01:09:12;1.00;;;1.00;;
64550;SDS011;50945;44.472;-123.352;2023-07-13T01:11:40;1.13;;;1.13;;
64550;SDS011;50945;44.472;-123.352;2023-07-13T01:14:06;2.78;;;1.10;;
64550;SDS011;50945;44.472;-123.352;2023-07-13T01:16:35;0.80;;;0.80;;
64550;SDS011;50945;44.472;-123.352;2023-07-13T01:19:03;0.52;;;0.52;;
64550;SDS011;50945;44.472;-123.352;2023-07-13T01:22:01;1.63;;;1.20;;
64550;SDS011;50945;44.472;-123.352;2023-07-13T01:24:37;1.17;;;1.08;;
64550;SDS011;50945;44.472;-123.352;2023-07-13T01:27:05;1.40;;;1.02;;
64550;SDS011;50945;44.472;-123.352;2023-07-13T01:29:33;1.88;;;1.00;;
64550;SDS011;50945;44.472;-123.352;2023-07-13T01:32:10;3.50;;;0.80;;
64550;SDS011;50945;44.472;-123.352;2023-07-13T01:34:38;0.77;;;0.77;;
64550;SDS011;50945;44.472;-123.352;2023-07-13T01:37:08;0.82;;;0.82;;
64550;SDS011;50945;44.472;-123.352;2023-07-13T01:39:35;1.15;;;1.05;;
64550;SDS011;50945;44.472;-123.352;2023-07-13T01:42:02;0.90;;;0.90;;
64550;SDS011;50945;44.472;-123.352;2023-07-13T01:44:29;0.98;;;0.88;;
64550;SDS011;50945;44.472;-123.352;2023-07-13T01:46:55;1.15;;;0.63;;
64550;SDS011;50945;44.472;-123.352;2023-07-13T01:49:22;0.90;;;0.90;;
64550;SDS011;50945;44.472;-123.352;2023-07-13T01:51:48;2.25;;;0.80;;
64550;SDS011;50945;44.472;-123.352;2023-07-13T01:54:14;2.55;;;0.75;;
64550;SDS011;50945;44.472;-123.352;2023-07-13T01:56:40;1.10;;;1.00;;
64550;SDS011;50945;44.472;-123.352;2023-07-13T01:59:07;0.82;;;0.82;;
64550;SDS011;50945;44.472;-123.352;2023-07-13T02:01:34;0.80;;;0.80;;
64550;SDS011;50945;44.472;-123.352;2023-07-13T02:04:00;1.02;;;0.93;;
64550;SDS011;50945;44.472;-123.352;2023-07-13T02:08:52;0.95;;;0.95;;
64550;SDS011;50945;44.472;-123.352;2023-07-13T02:11:18;0.93;;;0.90;;
64550;SDS011;50945;44.472;-123.352;2023-07-13T02:13:44;1.00;;;1.00;;
64550;SDS011;50945;44.472;-123.352;2023-07-13T02:16:11;1.13;;;1.02;;
64550;SDS011;50945;44.472;-123.352;2023-07-13T02:18:37;1.30;;;1.20;;
64550;SDS011;50945;44.472;-123.352;2023-07-13T02:21:03;2.08;;;1.17;;
64550;SDS011;50945;44.472;-123.352;2023-07-13T02:23:29;1.02;;;1.02;;
64550;SDS011;50945;44.472;-123.352;2023-07-13T02:25:56;1.48;;;1.17;;
64550;SDS011;50945;44.472;-123.352;2023-07-13T02:28:23;1.40;;;1.30;;
64550;SDS011;50945;44.472;-123.352;2023-07-13T02:30:49;1.95;;;1.00;;
64550;SDS011;50945;44.472;-123.352;2023-07-13T02:33:15;0.90;;;0.90;;
64550;SDS011;50945;44.472;-123.352;2023-07-13T02:35:42;1.02;;;1.00;;
64550;SDS011;50945;44.472;-123.352;2023-07-13T02:40:34;1.30;;;1.20;;
64550;SDS011;50945;44.472;-123.352;2023-07-13T02:43:01;1.17;;;1.10;;
64550;SDS011;50945;44.472;-123.352;2023-07-13T02:45:28;0.85;;;0.85;;
64550;SDS011;50945;44.472;-123.352;2023-07-13T02:47:54;2.05;;;1.15;;
64550;SDS011;50945;44.472;-123.352;2023-07-13T02:50:20;1.23;;;1.13;;
64550;SDS011;50945;44.472;-123.352;2023-07-13T02:52:47;1.75;;;1.30;;
64550;SDS011;50945;44.472;-123.352;2023-07-13T02:57:39;3.35;;;1.00;;
64550;SDS011;50945;44.472;-123.352;2023-07-13T03:00:06;1.98;;;1.13;;
64550;SDS011;50945;44.472;-123.352;2023-07-13T03:02:33;2.67;;;1.23;;
64550;SDS011;50945;44.472;-123.352;2023-07-13T03:05:00;1.42;;;1.33;;
64550;SDS011;50945;44.472;-123.352;2023-07-13T03:07:27;1.65;;;1.10;;
64550;SDS011;50945;44.472;-123.352;2023-07-13T03:12:21;1.48;;;0.70;;
64550;SDS011;50945;44.472;-123.352;2023-07-13T03:14:47;1.60;;;0.93;;
64550;SDS011;50945;44.472;-123.352;2023-07-13T03:17:13;1.20;;;1.20;;
64550;SDS011;50945;44.472;-123.352;2023-07-13T03:22:06;2.45;;;1.10;;
64550;SDS011;50945;44.472;-123.352;2023-07-13T03:24:32;2.53;;;0.80;;
64550;SDS011;50945;44.472;-123.352;2023-07-13T03:27:01;2.08;;;1.00;;
64550;SDS011;50945;44.472;-123.352;2023-07-13T03:29:27;1.20;;;1.10;;
64550;SDS011;50945;44.472;-123.352;2023-07-13T03:31:54;2.65;;;0.93;;
64550;SDS011;50945;44.472;-123.352;2023-07-13T03:34:20;2.38;;;1.10;;
64550;SDS011;50945;44.472;-123.352;2023-07-13T03:36:46;0.90;;;0.90;;
64550;SDS011;50945;44.472;-123.352;2023-07-13T03:41:38;1.92;;;1.15;;
64550;SDS011;50945;44.472;-123.352;2023-07-13T03:46:30;0.70;;;0.70;;
64550;SDS011;50945;44.472;-123.352;2023-07-13T03:48:57;0.98;;;0.88;;
64550;SDS011;50945;44.472;-123.352;2023-07-13T03:53:49;4.03;;;1.10;;
64550;SDS011;50945;44.472;-123.352;2023-07-13T03:56:17;3.13;;;1.20;;
64550;SDS011;50945;44.472;-123.352;2023-07-13T03:58:45;1.85;;;1.00;;
64550;SDS011;50945;44.472;-123.352;2023-07-13T04:01:13;0.88;;;0.88;;
64550;SDS011;50945;44.472;-123.352;2023-07-13T04:03:41;1.30;;;1.20;;
64550;SDS011;50945;44.472;-123.352;2023-07-13T04:08:40;1.48;;;1.00;;
64550;SDS011;50945;44.472;-123.352;2023-07-13T04:11:08;2.38;;;1.25;;
64550;SDS011;50945;44.472;-123.352;2023-07-13T04:13:34;1.17;;;0.73;;
64550;SDS011;50945;44.472;-123.352;2023-07-13T04:16:00;1.55;;;1.05;;
64550;SDS011;50945;44.472;-123.352;2023-07-13T04:20:52;2.55;;;0.85;;
64550;SDS011;50945;44.472;-123.352;2023-07-13T04:23:18;0.80;;;0.80;;
64550;SDS011;50945;44.472;-123.352;2023-07-13T04:25:45;3.60;;;0.77;;
64550;SDS011;50945;44.472;-123.352;2023-07-13T04:28:14;0.90;;;0.90;;
64550;SDS011;50945;44.472;-123.352;2023-07-13T04:30:42;1.92;;;1.02;;
64550;SDS011;50945;44.472;-123.352;2023-07-13T04:33:09;0.50;;;0.50;;
64550;SDS011;50945;44.472;-123.352;2023-07-13T04:38:02;1.65;;;0.75;;
64550;SDS011;50945;44.472;-123.352;2023-07-13T04:40:29;1.25;;;0.80;;
64550;SDS011;50945;44.472;-123.352;2023-07-13T04:42:55;0.80;;;0.80;;
64550;SDS011;50945;44.472;-123.352;2023-07-13T04:45:22;0.90;;;0.90;;
64550;SDS011;50945;44.472;-123.352;2023-07-13T04:47:50;1.08;;;1.08;;
64550;SDS011;50945;44.472;-123.352;2023-07-13T04:50:16;0.90;;;0.90;;
64550;SDS011;50945;44.472;-123.352;2023-07-13T04:52:46;0.98;;;0.90;;
64550;SDS011;50945;44.472;-123.352;2023-07-13T04:55:13;1.70;;;0.90;;
64550;SDS011;50945;44.472;-123.352;2023-07-13T04:57:39;1.55;;;0.80;;
64550;SDS011;50945;44.472;-123.352;2023-07-13T05:00:06;1.02;;;1.00;;
64550;SDS011;50945;44.472;-123.352;2023-07-13T05:02:33;0.73;;;0.73;;
64550;SDS011;50945;44.472;-123.352;2023-07-13T05:05:00;0.88;;;0.88;;
64550;SDS011;50945;44.472;-123.352;2023-07-13T05:07:28;0.73;;;0.73;;
64550;SDS011;50945;44.472;-123.352;2023-07-13T05:12:21;1.10;;;0.93;;
64550;SDS011;50945;44.472;-123.352;2023-07-13T05:14:47;1.17;;;1.17;;
64550;SDS011;50945;44.472;-123.352;2023-07-13T05:17:14;1.52;;;1.30;;
64550;SDS011;50945;44.472;-123.352;2023-07-13T05:19:41;1.00;;;1.00;;
64550;SDS011;50945;44.472;-123.352;2023-07-13T05:22:07;1.40;;;1.17;;
64550;SDS011;50945;44.472;-123.352;2023-07-13T05:24:33;2.47;;;1.00;;
64550;SDS011;50945;44.472;-123.352;2023-07-13T05:29:25;1.77;;;1.10;;
64550;SDS011;50945;44.472;-123.352;2023-07-13T05:31:52;1.00;;;0.95;;
64550;SDS011;50945;44.472;-123.352;2023-07-13T05:34:18;1.27;;;1.17;;
64550;SDS011;50945;44.472;-123.352;2023-07-13T05:36:44;1.45;;;1.30;;
64550;SDS011;50945;44.472;-123.352;2023-07-13T05:41:37;1.02;;;1.02;;
64550;SDS011;50945;44.472;-123.352;2023-07-13T05:44:03;1.30;;;1.20;;
64550;SDS011;50945;44.472;-123.352;2023-07-13T05:46:29;1.23;;;1.23;;
64550;SDS011;50945;44.472;-123.352;2023-07-13T05:48:56;1.02;;;1.02;;
64550;SDS011;50945;44.472;-123.352;2023-07-13T05:51:22;0.65;;;0.65;;
64550;SDS011;50945;44.472;-123.352;2023-07-13T05:53:48;1.50;;;1.38;;
64550;SDS011;50945;44.472;-123.352;2023-07-13T05:56:14;0.95;;;0.95;;
64550;SDS011;50945;44.472;-123.352;2023-07-13T05:58:41;0.93;;;0.93;;
64550;SDS011;50945;44.472;-123.352;2023-07-13T06:01:11;1.35;;;1.10;;
64550;SDS011;50945;44.472;-123.352;2023-07-13T06:03:39;1.05;;;0.95;;
64550;SDS011;50945;44.472;-123.352;2023-07-13T06:06:06;1.27;;;1.17;;
64550;SDS011;50945;44.472;-123.352;2023-07-13T06:08:35;2.17;;;1.08;;
64550;SDS011;50945;44.472;-123.352;2023-07-13T06:11:06;1.23;;;1.13;;
64550;SDS011;50945;44.472;-123.352;2023-07-13T06:13:35;1.00;;;1.00;;
64550;SDS011;50945;44.472;-123.352;2023-07-13T06:16:02;1.70;;;1.27;;
64550;SDS011;50945;44.472;-123.352;2023-07-13T06:18:30;1.05;;;1.05;;
64550;SDS011;50945;44.472;-123.352;2023-07-13T06:20:57;1.10;;;1.08;;
64550;SDS011;50945;44.472;-123.352;2023-07-13T06:25:50;1.02;;;1.02;;
64550;SDS011;50945;44.472;-123.352;2023-07-13T06:28:16;1.27;;;1.20;;
64550;SDS011;50945;44.472;-123.352;2023-07-13T06:30:42;2.80;;;1.27;;
64550;SDS011;50945;44.472;-123.352;2023-07-13T06:33:08;1.08;;;1.08;;
64550;SDS011;50945;44.472;-123.352;2023-07-13T06:35:34;1.45;;;1.35;;
64550;SDS011;50945;44.472;-123.352;2023-07-13T06:38:01;1.05;;;0.95;;
64550;SDS011;50945;44.472;-123.352;2023-07-13T06:40:27;2.42;;;1.17;;
64550;SDS011;50945;44.472;-123.352;2023-07-13T06:42:55;1.02;;;0.93;;
64550;SDS011;50945;44.472;-123.352;2023-07-13T06:45:22;1.48;;;1.20;;
64550;SDS011;50945;44.472;-123.352;2023-07-13T06:47:48;1.23;;;1.17;;
64550;SDS011;50945;44.472;-123.352;2023-07-13T06:50:14;1.67;;;1.10;;
64550;SDS011;50945;44.472;-123.352;2023-07-13T06:52:41;1.58;;;1.48;;
64550;SDS011;50945;44.472;-123.352;2023-07-13T06:55:07;1.25;;;1.02;;
64550;SDS011;50945;44.472;-123.352;2023-07-13T06:57:34;1.58;;;1.48;;
64550;SDS011;50945;44.472;-123.352;2023-07-13T07:00:00;1.40;;;1.30;;
64550;SDS011;50945;44.472;-123.352;2023-07-13T07:02:26;1.40;;;1.30;;
64550;SDS011;50945;44.472;-123.352;2023-07-13T07:04:52;1.58;;;1.40;;
64550;SDS011;50945;44.472;-123.352;2023-07-13T07:07:19;1.60;;;1.50;;
64550;SDS011;50945;44.472;-123.352;2023-07-13T07:09:48;1.45;;;1.40;;
64550;SDS011;50945;44.472;-123.352;2023-07-13T07:12:14;1.70;;;1.60;;
64550;SDS011;50945;44.472;-123.352;2023-07-13T07:14:41;1.52;;;1.42;;
64550;SDS011;50945;44.472;-123.352;2023-07-13T07:17:07;1.80;;;1.70;;
64550;SDS011;50945;44.472;-123.352;2023-07-13T07:19:33;1.20;;;1.20;;
64550;SDS011;50945;44.472;-123.352;2023-07-13T07:22:00;1.30;;;1.20;;
64550;SDS011;50945;44.472;-123.352;2023-07-13T07:24:26;1.35;;;1.25;;
64550;SDS011;50945;44.472;-123.352;2023-07-13T07:26:52;2.40;;;1.42;;
64550;SDS011;50945;44.472;-123.352;2023-07-13T07:29:19;1.80;;;1.63;;
64550;SDS011;50945;44.472;-123.352;2023-07-13T07:31:45;1.38;;;1.27;;
64550;SDS011;50945;44.472;-123.352;2023-07-13T07:34:11;1.40;;;1.30;;
64550;SDS011;50945;44.472;-123.352;2023-07-13T07:36:37;1.75;;;1.50;;
64550;SDS011;50945;44.472;-123.352;2023-07-13T07:39:03;1.88;;;1.35;;
64550;SDS011;50945;44.472;-123.352;2023-07-13T07:41:30;2.38;;;1.25;;
64550;SDS011;50945;44.472;-123.352;2023-07-13T07:43:56;1.70;;;1.48;;
64550;SDS011;50945;44.472;-123.352;2023-07-13T07:46:22;1.63;;;1.52;;
64550;SDS011;50945;44.472;-123.352;2023-07-13T07:48:48;1.88;;;1.45;;
64550;SDS011;50945;44.472;-123.352;2023-07-13T07:51:14;1.30;;;1.20;;
64550;SDS011;50945;44.472;-123.352;2023-07-13T07:53:40;2.22;;;1.52;;
64550;SDS011;50945;44.472;-123.352;2023-07-13T07:56:07;6.18;;;1.67;;
64550;SDS011;50945;44.472;-123.352;2023-07-13T08:01:03;1.50;;;1.38;;
64550;SDS011;50945;44.472;-123.352;2023-07-13T08:03:32;1.45;;;1.35;;
64550;SDS011;50945;44.472;-123.352;2023-07-13T08:08:25;1.65;;;1.55;;
64550;SDS011;50945;44.472;-123.352;2023-07-13T08:13:17;1.25;;;1.15;;
64550;SDS011;50945;44.472;-123.352;2023-07-13T08:15:43;1.70;;;1.48;;
64550;SDS011;50945;44.472;-123.352;2023-07-13T08:18:10;2.40;;;1.83;;
64550;SDS011;50945;44.472;-123.352;2023-07-13T08:20:37;2.45;;;1.63;;
64550;SDS011;50945;44.472;-123.352;2023-07-13T08:23:06;1.90;;;1.58;;
64550;SDS011;50945;44.472;-123.352;2023-07-13T08:25:35;1.70;;;1.60;;
64550;SDS011;50945;44.472;-123.352;2023-07-13T08:28:02;2.42;;;1.48;;
64550;SDS011;50945;44.472;-123.352;2023-07-13T08:30:28;2.28;;;1.42;;
64550;SDS011;50945;44.472;-123.352;2023-07-13T08:32:55;1.58;;;1.48;;
64550;SDS011;50945;44.472;-123.352;2023-07-13T08:35:21;2.83;;;1.33;;
64550;SDS011;50945;44.472;-123.352;2023-07-13T08:37:47;1.48;;;1.38;;
64550;SDS011;50945;44.472;-123.352;2023-07-13T08:40:13;2.75;;;1.30;;
64550;SDS011;50945;44.472;-123.352;2023-07-13T08:48:09;2.00;;;1.80;;
64550;SDS011;50945;44.472;-123.352;2023-07-13T08:50:55;2.13;;;1.95;;
64550;SDS011;50945;44.472;-123.352;2023-07-13T08:53:23;1.23;;;1.20;;
64550;SDS011;50945;44.472;-123.352;2023-07-13T08:55:55;2.03;;;1.55;;
64550;SDS011;50945;44.472;-123.352;2023-07-13T08:58:25;1.25;;;1.15;;
64550;SDS011;50945;44.472;-123.352;2023-07-13T09:01:16;2.25;;;1.88;;
64550;SDS011;50945;44.472;-123.352;2023-07-13T09:10:11;2.42;;;1.50;;
64550;SDS011;50945;44.472;-123.352;2023-07-13T09:15:57;1.77;;;1.67;;
64550;SDS011;50945;44.472;-123.352;2023-07-13T09:18:30;1.65;;;1.55;;
64550;SDS011;50945;44.472;-123.352;2023-07-13T09:23:58;1.50;;;1.40;;
64550;SDS011;50945;44.472;-123.352;2023-07-13T09:29:17;1.40;;;1.35;;
64550;SDS011;50945;44.472;-123.352;2023-07-13T09:31:58;1.60;;;1.50;;
64550;SDS011;50945;44.472;-123.352;2023-07-13T09:34:29;2.33;;;1.70;;
64550;SDS011;50945;44.472;-123.352;2023-07-13T09:36:57;1.48;;;1.35;;
64550;SDS011;50945;44.472;-123.352;2023-07-13T09:39:27;2.03;;;1.85;;
64550;SDS011;50945;44.472;-123.352;2023-07-13T09:44:37;1.75;;;1.65;;
64550;SDS011;50945;44.472;-123.352;2023-07-13T09:47:18;2.08;;;1.85;;
64550;SDS011;50945;44.472;-123.352;2023-07-13T09:50:05;3.30;;;1.38;;
64550;SDS011;50945;44.472;-123.352;2023-07-13T09:57:54;1.77;;;1.60;;
64550;SDS011;50945;44.472;-123.352;2023-07-13T10:00:27;2.08;;;1.30;;
64550;SDS011;50945;44.472;-123.352;2023-07-13T10:02:58;2.88;;;1.75;;
64550;SDS011;50945;44.472;-123.352;2023-07-13T10:05:26;2.17;;;1.73;;
64550;SDS011;50945;44.472;-123.352;2023-07-13T10:07:53;2.00;;;1.80;;
64550;SDS011;50945;44.472;-123.352;2023-07-13T10:10:22;1.90;;;1.80;;
64550;SDS011;50945;44.472;-123.352;2023-07-13T10:12:49;2.55;;;1.75;;
64550;SDS011;50945;44.472;-123.352;2023-07-13T10:15:20;1.50;;;1.40;;
64550;SDS011;50945;44.472;-123.352;2023-07-13T10:17:50;2.28;;;1.95;;
64550;SDS011;50945;44.472;-123.352;2023-07-13T10:20:21;1.58;;;1.48;;
64550;SDS011;50945;44.472;-123.352;2023-07-13T10:23:21;1.67;;;1.58;;
64550;SDS011;50945;44.472;-123.352;2023-07-13T10:25:47;1.70;;;1.60;;
64550;SDS011;50945;44.472;-123.352;2023-07-13T10:30:52;1.58;;;1.50;;
64550;SDS011;50945;44.472;-123.352;2023-07-13T10:33:22;2.00;;;1.80;;
64550;SDS011;50945;44.472;-123.352;2023-07-13T10:38:21;2.10;;;1.55;;
64550;SDS011;50945;44.472;-123.352;2023-07-13T10:41:02;2.58;;;1.60;;
64550;SDS011;50945;44.472;-123.352;2023-07-13T10:43:41;1.95;;;1.52;;
64550;SDS011;50945;44.472;-123.352;2023-07-13T10:46:11;1.65;;;1.55;;
64550;SDS011;50945;44.472;-123.352;2023-07-13T10:48:41;1.67;;;1.58;;
64550;SDS011;50945;44.472;-123.352;2023-07-13T10:51:13;2.08;;;1.85;;
64550;SDS011;50945;44.472;-123.352;2023-07-13T10:53:41;3.35;;;1.70;;
64550;SDS011;50945;44.472;-123.352;2023-07-13T10:58:40;1.63;;;1.52;;
64550;SDS011;50945;44.472;-123.352;2023-07-13T11:01:15;1.58;;;1.48;;
64550;SDS011;50945;44.472;-123.352;2023-07-13T11:14:03;1.90;;;1.80;;
64550;SDS011;50945;44.472;-123.352;2023-07-13T11:16:47;2.88;;;1.70;;
64550;SDS011;50945;44.472;-123.352;2023-07-13T11:27:49;3.20;;;1.83;;
64550;SDS011;50945;44.472;-123.352;2023-07-13T11:30:24;2.28;;;1.70;;
64550;SDS011;50945;44.472;-123.352;2023-07-13T11:33:04;2.00;;;1.80;;
64550;SDS011;50945;44.472;-123.352;2023-07-13T11:36:04;2.13;;;1.83;;
64550;SDS011;50945;44.472;-123.352;2023-07-13T11:38:41;2.03;;;1.80;;
64550;SDS011;50945;44.472;-123.352;2023-07-13T11:41:17;1.88;;;1.50;;
64550;SDS011;50945;44.472;-123.352;2023-07-13T11:44:08;2.92;;;1.80;;
64550;SDS011;50945;44.472;-123.352;2023-07-13T11:46:44;1.85;;;1.75;;
64550;SDS011;50945;44.472;-123.352;2023-07-13T11:49:20;2.22;;;1.65;;
64550;SDS011;50945;44.472;-123.352;2023-07-13T11:51:48;3.25;;;2.00;;
64550;SDS011;50945;44.472;-123.352;2023-07-13T11:54:30;2.38;;;1.85;;
64550;SDS011;50945;44.472;-123.352;2023-07-13T11:57:03;1.90;;;1.70;;
64550;SDS011;50945;44.472;-123.352;2023-07-13T11:59:51;2.78;;;1.80;;
64550;SDS011;50945;44.472;-123.352;2023-07-13T12:04:54;2.03;;;1.83;;
64550;SDS011;50945;44.472;-123.352;2023-07-13T12:07:20;1.80;;;1.65;;
64550;SDS011;50945;44.472;-123.352;2023-07-13T12:09:48;1.80;;;1.70;;
64550;SDS011;50945;44.472;-123.352;2023-07-13T12:12:21;1.77;;;1.67;;
64550;SDS011;50945;44.472;-123.352;2023-07-13T12:14:52;2.25;;;1.90;;
64550;SDS011;50945;44.472;-123.352;2023-07-13T12:17:23;1.85;;;1.75;;
64550;SDS011;50945;44.472;-123.352;2023-07-13T12:19:52;2.38;;;1.77;;
64550;SDS011;50945;44.472;-123.352;2023-07-13T12:22:19;2.53;;;2.20;;
64550;SDS011;50945;44.472;-123.352;2023-07-13T12:24:46;2.85;;;2.35;;
64550;SDS011;50945;44.472;-123.352;2023-07-13T12:27:18;2.55;;;2.33;;
64550;SDS011;50945;44.472;-123.352;2023-07-13T12:29:50;3.28;;;2.15;;
64550;SDS011;50945;44.472;-123.352;2023-07-13T12:32:21;1.83;;;1.73;;
64550;SDS011;50945;44.472;-123.352;2023-07-13T12:34:53;3.50;;;2.08;;
64550;SDS011;50945;44.472;-123.352;2023-07-13T12:37:34;2.40;;;1.83;;
64550;SDS011;50945;44.472;-123.352;2023-07-13T12:40:00;1.85;;;1.75;;
64550;SDS011;50945;44.472;-123.352;2023-07-13T12:42:31;2.33;;;2.13;;
64550;SDS011;50945;44.472;-123.352;2023-07-13T12:44:58;2.72;;;1.90;;
64550;SDS011;50945;44.472;-123.352;2023-07-13T12:47:29;2.78;;;2.00;;
64550;SDS011;50945;44.472;-123.352;2023-07-13T12:52:33;2.92;;;2.17;;
64550;SDS011;50945;44.472;-123.352;2023-07-13T12:55:15;1.70;;;1.60;;
64550;SDS011;50945;44.472;-123.352;2023-07-13T12:57:47;2.67;;;1.90;;
64550;SDS011;50945;44.472;-123.352;2023-07-13T13:00:31;2.28;;;2.08;;
64550;SDS011;50945;44.472;-123.352;2023-07-13T13:03:23;2.22;;;2.05;;
64550;SDS011;50945;44.472;-123.352;2023-07-13T13:06:05;3.70;;;2.35;;
64550;SDS011;50945;44.472;-123.352;2023-07-13T13:08:56;4.43;;;2.10;;
64550;SDS011;50945;44.472;-123.352;2023-07-13T13:11:24;2.05;;;1.80;;
64550;SDS011;50945;44.472;-123.352;2023-07-13T13:13:52;1.90;;;1.80;;
64550;SDS011;50945;44.472;-123.352;2023-07-13T13:18:55;3.00;;;2.10;;
64550;SDS011;50945;44.472;-123.352;2023-07-13T13:21:23;4.32;;;2.35;;
64550;SDS011;50945;44.472;-123.352;2023-07-13T13:23:51;3.92;;;2.63;;
64550;SDS011;50945;44.472;-123.352;2023-07-13T13:26:19;3.80;;;2.47;;
64550;SDS011;50945;44.472;-123.352;2023-07-13T13:28:47;3.00;;;2.33;;
64550;SDS011;50945;44.472;-123.352;2023-07-13T13:31:14;3.30;;;2.60;;
64550;SDS011;50945;44.472;-123.352;2023-07-13T13:33:41;2.90;;;2.35;;
64550;SDS011;50945;44.472;-123.352;2023-07-13T13:36:14;2.83;;;2.40;;
64550;SDS011;50945;44.472;-123.352;2023-07-13T13:38:48;3.58;;;2.80;;
64550;SDS011;50945;44.472;-123.352;2023-07-13T13:41:16;5.95;;;2.50;;
64550;SDS011;50945;44.472;-123.352;2023-07-13T13:48:41;7.07;;;2.90;;
64550;SDS011;50945;44.472;-123.352;2023-07-13T13:51:13;2.78;;;2.30;;
64550;SDS011;50945;44.472;-123.352;2023-07-13T13:53:50;3.65;;;2.08;;
64550;SDS011;50945;44.472;-123.352;2023-07-13T13:56:17;2.85;;;2.17;;
64550;SDS011;50945;44.472;-123.352;2023-07-13T13:58:44;3.10;;;2.60;;
64550;SDS011;50945;44.472;-123.352;2023-07-13T14:01:20;3.13;;;2.47;;
64550;SDS011;50945;44.472;-123.352;2023-07-13T14:03:49;4.22;;;2.70;;
64550;SDS011;50945;44.472;-123.352;2023-07-13T14:06:19;4.03;;;2.50;;
64550;SDS011;50945;44.472;-123.352;2023-07-13T14:08:45;3.72;;;2.55;;
64550;SDS011;50945;44.472;-123.352;2023-07-13T14:11:13;2.88;;;2.60;;
64550;SDS011;50945;44.472;-123.352;2023-07-13T14:13:51;3.97;;;2.67;;
64550;SDS011;50945;44.472;-123.352;2023-07-13T14:16:20;3.25;;;2.30;;
64550;SDS011;50945;44.472;-123.352;2023-07-13T14:18:48;7.20;;;2.47;;
64550;SDS011;50945;44.472;-123.352;2023-07-13T14:21:16;4.82;;;2.95;;
64550;SDS011;50945;44.472;-123.352;2023-07-13T14:23:44;3.55;;;2.50;;
64550;SDS011;50945;44.472;-123.352;2023-07-13T14:26:12;3.13;;;2.83;;
64550;SDS011;50945;44.472;-123.352;2023-07-13T14:28:45;5.97;;;3.05;;
64550;SDS011;50945;44.472;-123.352;2023-07-13T14:31:16;3.78;;;2.80;;
64550;SDS011;50945;44.472;-123.352;2023-07-13T14:33:43;4.38;;;2.60;;
64550;SDS011;50945;44.472;-123.352;2023-07-13T14:36:32;4.50;;;3.00;;
64550;SDS011;50945;44.472;-123.352;2023-07-13T14:39:05;4.38;;;2.80;;
64550;SDS011;50945;44.472;-123.352;2023-07-13T14:41:43;6.50;;;2.92;;
64550;SDS011;50945;44.472;-123.352;2023-07-13T14:44:21;4.32;;;2.75;;
64550;SDS011;50945;44.472;-123.352;2023-07-13T14:46:54;5.05;;;2.97;;
64550;SDS011;50945;44.472;-123.352;2023-07-13T14:51:56;5.45;;;3.10;;
64550;SDS011;50945;44.472;-123.352;2023-07-13T14:54:24;4.65;;;3.03;;
64550;SDS011;50945;44.472;-123.352;2023-07-13T14:56:50;5.30;;;3.05;;
64550;SDS011;50945;44.472;-123.352;2023-07-13T14:59:16;4.00;;;2.50;;
64550;SDS011;50945;44.472;-123.352;2023-07-13T15:01:45;3.70;;;3.05;;
64550;SDS011;50945;44.472;-123.352;2023-07-13T15:04:14;4.40;;;3.00;;
64550;SDS011;50945;44.472;-123.352;2023-07-13T15:06:54;3.40;;;2.97;;
64550;SDS011;50945;44.472;-123.352;2023-07-13T15:09:22;5.82;;;2.67;;
64550;SDS011;50945;44.472;-123.352;2023-07-13T15:11:52;4.35;;;3.00;;
64550;SDS011;50945;44.472;-123.352;2023-07-13T15:14:20;3.55;;;3.05;;
64550;SDS011;50945;44.472;-123.352;2023-07-13T15:16:46;4.93;;;3.47;;
64550;SDS011;50945;44.472;-123.352;2023-07-13T15:19:16;6.38;;;3.63;;
64550;SDS011;50945;44.472;-123.352;2023-07-13T15:21:44;5.10;;;3.25;;
64550;SDS011;50945;44.472;-123.352;2023-07-13T15:24:10;4.13;;;2.95;;
64550;SDS011;50945;44.472;-123.352;2023-07-13T15:26:36;5.97;;;4.00;;
64550;SDS011;50945;44.472;-123.352;2023-07-13T15:29:04;7.03;;;3.25;;
64550;SDS011;50945;44.472;-123.352;2023-07-13T15:31:31;4.88;;;3.40;;
64550;SDS011;50945;44.472;-123.352;2023-07-13T15:33:59;5.38;;;3.30;;
64550;SDS011;50945;44.472;-123.352;2023-07-13T15:36:26;6.18;;;3.05;;
64550;SDS011;50945;44.472;-123.352;2023-07-13T15:38:53;7.03;;;3.28;;
64550;SDS011;50945;44.472;-123.352;2023-07-13T15:41:22;4.95;;;3.22;;
64550;SDS011;50945;44.472;-123.352;2023-07-13T15:43:50;5.40;;;2.88;;
64550;SDS011;50945;44.472;-123.352;2023-07-13T15:46:19;4.80;;;2.60;;
64550;SDS011;50945;44.472;-123.352;2023-07-13T15:48:50;4.45;;;2.90;;
64550;SDS011;50945;44.472;-123.352;2023-07-13T15:53:56;7.82;;;2.40;;
64550;SDS011;50945;44.472;-123.352;2023-07-13T15:56:28;2.28;;;2.08;;
64550;SDS011;50945;44.472;-123.352;2023-07-13T15:58:55;2.58;;;1.98;;
64550;SDS011;50945;44.472;-123.352;2023-07-13T16:01:23;7.88;;;2.30;;
64550;SDS011;50945;44.472;-123.352;2023-07-13T16:03:49;1.90;;;1.80;;
64550;SDS011;50945;44.472;-123.352;2023-07-13T16:06:26;5.72;;;2.28;;
64550;SDS011;50945;44.472;-123.352;2023-07-13T16:08:58;5.25;;;2.63;;
64550;SDS011;50945;44.472;-123.352;2023-07-13T16:11:30;2.97;;;2.10;;
64550;SDS011;50945;44.472;-123.352;2023-07-13T16:14:00;2.58;;;2.15;;
64550;SDS011;50945;44.472;-123.352;2023-07-13T16:18:59;1.67;;;1.58;;